Austin Reinauer — WCX8055 — position and weather

sailwx.info

Track history (hours):
 
Tides and Currents Weather Stations Pressure Air Temp Water Temp Dewpoint Dewpoint Depression Visibility Wind Speed Wind Dir Waves Ship Positions

Austin Reinauer

Owner: REINAUER TRANSPORTATION CO, LP, STATEN ISLAND, NY. More information available from US FCC via Universal Licensing System and Coast Guard Vessel Documentation Center.

Last reported at 2015-Apr-01 03:34 UTC. Time now 2015-Apr-01 04:34 UTC.
Position N 40°36' W 074°12'.

Length 33 m; draft 6.7 m.

Type: Ship (hazmat cat B). MMSI: 366739920.

Date/timePositionNaut miles runAvg speedWind from/ knotsBaromVisibWave heightAir tempDewpointWater temp
2015-Apr-01 03:34N 40°36' W 074°12'0 0.0
2015-Apr-01 02:28N 40°36' W 074°12'0 0.0
2015-Apr-01 01:33N 40°36' W 074°12'0 0.3
2015-Apr-01 00:29N 40°36' W 074°12'0 0.0
2015-Mar-31 23:29N 40°36' W 074°12'0 0.0
2015-Mar-31 22:32N 40°36' W 074°12'0 0.2
2015-Mar-31 21:27N 40°36' W 074°12'0 0.2
2015-Mar-31 20:30N 40°36' W 074°12'0 0.0
2015-Mar-31 17:06N 40°36' W 074°12'2 4.6
2015-Mar-31 16:33N 40°38' W 074°12'3 2.5
2015-Mar-31 15:19N 40°38' W 074°08'0 0.0
2015-Mar-31 14:31N 40°38' W 074°08'0 0.1
2015-Mar-31 13:31N 40°38' W 074°08'4 4.0
2015-Mar-31 12:33N 40°37' W 074°12'1 0.9
2015-Mar-31 11:15N 40°35' W 074°12'0 0.0
2015-Mar-31 10:09N 40°35' W 074°12'0 0.0
2015-Mar-31 09:15N 40°35' W 074°12'0 0.0
2015-Mar-31 02:09N 40°35' W 074°12'0 0.0
2015-Mar-31 01:33N 40°35' W 074°12'0 0.0
2015-Mar-31 00:27N 40°35' W 074°12'0 0.0
2015-Mar-30 23:27N 40°35' W 074°12'0 0.0
2015-Mar-30 22:32N 40°35' W 074°12'0 0.0
2015-Mar-30 21:27N 40°35' W 074°12'3 3.8
2015-Mar-30 20:34N 40°39' W 074°11'8 8.1
2015-Mar-30 19:34N 40°41' W 074°01'8 7.7
2015-Mar-30 18:33N 40°47' W 073°55'8 7.9
2015-Mar-30 17:33N 40°51' W 073°46'8 8.0
2015-Mar-30 16:34N 40°55' W 073°37'8 7.8
2015-Mar-30 15:33N 40°59' W 073°28'8 7.7
2015-Mar-30 14:33N 41°01' W 073°18'8 8.0
2015-Mar-30 13:34N 41°01' W 073°07'8 7.8
2015-Mar-30 12:34N 41°03' W 072°57'8 8.0
2015-Mar-30 11:33N 41°05' W 072°47'8 8.1
2015-Mar-30 10:34N 41°07' W 072°37'9 8.8
2015-Mar-30 09:34N 41°10' W 072°26'9 8.9
2015-Mar-30 08:33N 41°13' W 072°15'9 9.4
2015-Mar-30 07:34N 41°14' W 072°02'10 9.8
2015-Mar-30 06:33N 41°16' W 071°49'7 7.3
2015-Mar-30 05:34N 41°17' W 071°40'8 7.6
2015-Mar-30 04:33N 41°18' W 071°30'7 7.5
2015-Mar-30 03:33N 41°18' W 071°20'9 9.0
2015-Mar-30 02:33N 41°23' W 071°09'62 2.1
2015-Mar-28 21:25N 42°23' W 070°50'55 5.5
2015-Mar-28 11:31N 41°29' W 070°56'8 8.1
2015-Mar-28 10:33N 41°24' W 071°04'7 6.7
2015-Mar-28 09:33N 41°19' W 071°09'7 6.8
2015-Mar-28 08:33N 41°13' W 071°15'7 6.9
2015-Mar-28 07:33N 41°09' W 071°22'7 7.0
2015-Mar-28 06:33N 41°07' W 071°30'7 7.0
2015-Mar-28 05:33N 41°04' W 071°39'7 6.9
2015-Mar-28 04:33N 41°01' W 071°48'7 7.2
2015-Mar-28 03:33N 40°58' W 071°56'7 7.4
2015-Mar-28 02:33N 40°55' W 072°05'7 7.2
2015-Mar-28 01:33N 40°52' W 072°14'8 7.6
2015-Mar-28 00:33N 40°49' W 072°23'8 7.8
2015-Mar-27 23:32N 40°45' W 072°32'56 8.8
2015-Mar-27 17:13N 40°29' W 073°43'6 9.0
2015-Mar-27 16:32N 40°29' W 073°51'8 8.5
2015-Mar-27 15:33N 40°32' W 074°01'8 8.2
2015-Mar-27 14:33N 40°39' W 074°06'6 4.2
2015-Mar-27 13:09N 40°35' W 074°13'0 0.0
2015-Mar-27 11:33N 40°35' W 074°13'3 0.9
2015-Mar-27 08:28N 40°38' W 074°12'2 0.5
2015-Mar-27 04:30N 40°39' W 074°10'4 0.5
2015-Mar-26 20:13N 40°35' W 074°13'0 0.3
2015-Mar-26 19:23N 40°35' W 074°12'5 6.6
2015-Mar-26 18:33N 40°39' W 074°07'3 2.9
2015-Mar-26 17:29N 40°40' W 074°03'0 0.1
2015-Mar-26 16:32N 40°39' W 074°03'0 0.1
2015-Mar-26 15:29N 40°39' W 074°03'0 0.0
2015-Mar-26 14:29N 40°39' W 074°03'0 0.0
2015-Mar-26 13:29N 40°39' W 074°03'0 0.0
2015-Mar-26 12:32N 40°39' W 074°03'0 0.0
2015-Mar-26 11:32N 40°39' W 074°03'0 0.0
2015-Mar-26 10:29N 40°39' W 074°03'0 0.0
2015-Mar-26 09:29N 40°39' W 074°03'2 2.3
2015-Mar-26 08:33N 40°37' W 074°03'9 8.6
2015-Mar-26 07:32N 40°30' W 073°56'13 9.0
2015-Mar-26 06:05N 40°28' W 073°39'710.1
2015-Mar-26 05:23N 40°30' W 073°30'910.3
2015-Mar-26 04:29N 40°33' W 073°19'1010.4
2015-Mar-26 03:32N 40°36' W 073°06'1010.4
2015-Mar-26 02:33N 40°40' W 072°54'1010.4
2015-Mar-26 01:33N 40°43' W 072°41'1010.4
2015-Mar-26 00:33N 40°47' W 072°28'1110.5
2015-Mar-25 23:33N 40°52' W 072°16'1110.6
2015-Mar-25 22:33N 40°56' W 072°03'1010.3
2015-Mar-25 21:33N 41°00' W 071°51'10 9.8
2015-Mar-25 20:33N 41°04' W 071°39'1010.1
2015-Mar-25 19:33N 41°08' W 071°26'1010.1
2015-Mar-25 18:33N 41°15' W 071°16'1010.2
2015-Mar-25 17:33N 41°23' W 071°07'10 9.9
2015-Mar-25 16:33N 41°28' W 070°57'10 9.7
2015-Mar-25 15:33N 41°33' W 070°45'48 7.4
2015-Mar-25 09:04N 42°21' W 070°47'  
2015-Mar-22 07:22N 41°30' W 070°53'7 8.3
2015-Mar-22 06:33N 41°26' W 071°01'7 7.1
2015-Mar-22 05:33N 41°22' W 071°09'6 6.0
2015-Mar-22 04:33N 41°20' W 071°16'  
Track history (hours):
 
Tides and Currents Weather Stations Pressure Air Temp Water Temp Dewpoint Dewpoint Depression Visibility Wind Speed Wind Dir Waves Ship Positions

Austin Reinauer

Owner: REINAUER TRANSPORTATION CO, LP, STATEN ISLAND, NY. More information available from US FCC via Universal Licensing System and Coast Guard Vessel Documentation Center.

Last reported at 2015-Apr-01 03:34 UTC. Time now 2015-Apr-01 04:34 UTC.
Position N 40°36' W 074°12'.

Length 33 m; draft 6.7 m.

Type: Ship (hazmat cat B). MMSI: 366739920.

Date/timePositionNaut miles runAvg speedWind from/ knotsBaromVisibWave heightAir tempDewpointWater temp
2015-Apr-01 03:34N 40°36' W 074°12'0 0.0
2015-Apr-01 02:28N 40°36' W 074°12'0 0.0
2015-Apr-01 01:33N 40°36' W 074°12'0 0.3
2015-Apr-01 00:29N 40°36' W 074°12'0 0.0
2015-Mar-31 23:29N 40°36' W 074°12'0 0.0
2015-Mar-31 22:32N 40°36' W 074°12'0 0.2
2015-Mar-31 21:27N 40°36' W 074°12'0 0.2
2015-Mar-31 20:30N 40°36' W 074°12'0 0.0
2015-Mar-31 17:06N 40°36' W 074°12'2 4.6
2015-Mar-31 16:33N 40°38' W 074°12'3 2.5
2015-Mar-31 15:19N 40°38' W 074°08'0 0.0
2015-Mar-31 14:31N 40°38' W 074°08'0 0.1
2015-Mar-31 13:31N 40°38' W 074°08'4 4.0
2015-Mar-31 12:33N 40°37' W 074°12'1 0.9
2015-Mar-31 11:15N 40°35' W 074°12'0 0.0
2015-Mar-31 10:09N 40°35' W 074°12'0 0.0
2015-Mar-31 09:15N 40°35' W 074°12'0 0.0
2015-Mar-31 02:09N 40°35' W 074°12'0 0.0
2015-Mar-31 01:33N 40°35' W 074°12'0 0.0
2015-Mar-31 00:27N 40°35' W 074°12'0 0.0
2015-Mar-30 23:27N 40°35' W 074°12'0 0.0
2015-Mar-30 22:32N 40°35' W 074°12'0 0.0
2015-Mar-30 21:27N 40°35' W 074°12'3 3.8
2015-Mar-30 20:34N 40°39' W 074°11'8 8.1
2015-Mar-30 19:34N 40°41' W 074°01'8 7.7
2015-Mar-30 18:33N 40°47' W 073°55'8 7.9
2015-Mar-30 17:33N 40°51' W 073°46'8 8.0
2015-Mar-30 16:34N 40°55' W 073°37'8 7.8
2015-Mar-30 15:33N 40°59' W 073°28'8 7.7
2015-Mar-30 14:33N 41°01' W 073°18'8 8.0
2015-Mar-30 13:34N 41°01' W 073°07'8 7.8
2015-Mar-30 12:34N 41°03' W 072°57'8 8.0
2015-Mar-30 11:33N 41°05' W 072°47'8 8.1
2015-Mar-30 10:34N 41°07' W 072°37'9 8.8
2015-Mar-30 09:34N 41°10' W 072°26'9 8.9
2015-Mar-30 08:33N 41°13' W 072°15'9 9.4
2015-Mar-30 07:34N 41°14' W 072°02'10 9.8
2015-Mar-30 06:33N 41°16' W 071°49'7 7.3
2015-Mar-30 05:34N 41°17' W 071°40'8 7.6
2015-Mar-30 04:33N 41°18' W 071°30'7 7.5
2015-Mar-30 03:33N 41°18' W 071°20'9 9.0
2015-Mar-30 02:33N 41°23' W 071°09'62 2.1
2015-Mar-28 21:25N 42°23' W 070°50'55 5.5
2015-Mar-28 11:31N 41°29' W 070°56'8 8.1
2015-Mar-28 10:33N 41°24' W 071°04'7 6.7
2015-Mar-28 09:33N 41°19' W 071°09'7 6.8
2015-Mar-28 08:33N 41°13' W 071°15'7 6.9
2015-Mar-28 07:33N 41°09' W 071°22'7 7.0
2015-Mar-28 06:33N 41°07' W 071°30'7 7.0
2015-Mar-28 05:33N 41°04' W 071°39'7 6.9
2015-Mar-28 04:33N 41°01' W 071°48'7 7.2
2015-Mar-28 03:33N 40°58' W 071°56'7 7.4
2015-Mar-28 02:33N 40°55' W 072°05'7 7.2
2015-Mar-28 01:33N 40°52' W 072°14'8 7.6
2015-Mar-28 00:33N 40°49' W 072°23'8 7.8
2015-Mar-27 23:32N 40°45' W 072°32'56 8.8
2015-Mar-27 17:13N 40°29' W 073°43'6 9.0
2015-Mar-27 16:32N 40°29' W 073°51'8 8.5
2015-Mar-27 15:33N 40°32' W 074°01'8 8.2
2015-Mar-27 14:33N 40°39' W 074°06'6 4.2
2015-Mar-27 13:09N 40°35' W 074°13'0 0.0
2015-Mar-27 11:33N 40°35' W 074°13'3 0.9
2015-Mar-27 08:28N 40°38' W 074°12'2 0.5
2015-Mar-27 04:30N 40°39' W 074°10'4 0.5
2015-Mar-26 20:13N 40°35' W 074°13'0 0.3
2015-Mar-26 19:23N 40°35' W 074°12'5 6.6
2015-Mar-26 18:33N 40°39' W 074°07'3 2.9
2015-Mar-26 17:29N 40°40' W 074°03'0 0.1
2015-Mar-26 16:32N 40°39' W 074°03'0 0.1
2015-Mar-26 15:29N 40°39' W 074°03'0 0.0
2015-Mar-26 14:29N 40°39' W 074°03'0 0.0
2015-Mar-26 13:29N 40°39' W 074°03'0 0.0
2015-Mar-26 12:32N 40°39' W 074°03'0 0.0
2015-Mar-26 11:32N 40°39' W 074°03'0 0.0
2015-Mar-26 10:29N 40°39' W 074°03'0 0.0
2015-Mar-26 09:29N 40°39' W 074°03'2 2.3
2015-Mar-26 08:33N 40°37' W 074°03'9 8.6
2015-Mar-26 07:32N 40°30' W 073°56'13 9.0
2015-Mar-26 06:05N 40°28' W 073°39'710.1
2015-Mar-26 05:23N 40°30' W 073°30'910.3
2015-Mar-26 04:29N 40°33' W 073°19'1010.4
2015-Mar-26 03:32N 40°36' W 073°06'1010.4
2015-Mar-26 02:33N 40°40' W 072°54'1010.4
2015-Mar-26 01:33N 40°43' W 072°41'1010.4
2015-Mar-26 00:33N 40°47' W 072°28'1110.5
2015-Mar-25 23:33N 40°52' W 072°16'1110.6
2015-Mar-25 22:33N 40°56' W 072°03'1010.3
2015-Mar-25 21:33N 41°00' W 071°51'10 9.8
2015-Mar-25 20:33N 41°04' W 071°39'1010.1
2015-Mar-25 19:33N 41°08' W 071°26'1010.1
2015-Mar-25 18:33N 41°15' W 071°16'1010.2
2015-Mar-25 17:33N 41°23' W 071°07'10 9.9
2015-Mar-25 16:33N 41°28' W 070°57'10 9.7
2015-Mar-25 15:33N 41°33' W 070°45'48 7.4
2015-Mar-25 09:04N 42°21' W 070°47'  
2015-Mar-22 07:22N 41°30' W 070°53'7 8.3
2015-Mar-22 06:33N 41°26' W 071°01'7 7.1
2015-Mar-22 05:33N 41°22' W 071°09'6 6.0
2015-Mar-22 04:33N 41°20' W 071°16'  

Dump ship's entire track history